Harefield, United Kingdom
Current Conditions -  °F | °C
As of 8:50 AM on Monday 24 Nov 2014 (Local Time) from EGWU Reporting Station
Broken Clouds Broken Clouds  
Wind Chill:   Ceiling: 22000
Heat Index:   Visibility: 6mi
Dew Point:   Wind: 1mph
Humidity: 100%   Direction: 350°N
Pressure: 30.33"   Gusts: NA
Location:  51.6°N, 0.48°W
Report Text: EGWU 240850Z 35001KT 9999 FEW002 BKN220 01/01 Q1027 NOSIG
Loading
Personal Weather Stations






























Interactive Weather Map New forecast layout! Learn more

10-Day Weather Forecast

Advertisements
Track Severe Weather on mobile